createdAt,value
2023-03-28T00:01:43.158Z,1.10
2023-03-28T00:05:06.776Z,1.10
2023-03-28T00:08:28.814Z,1.10
2023-03-28T00:11:50.417Z,1.10
2023-03-28T00:15:12.122Z,1.20
2023-03-28T00:18:33.977Z,1.30
2023-03-28T00:21:58.944Z,1.30
2023-03-28T00:25:20.549Z,1.40
2023-03-28T00:28:42.150Z,1.30
2023-03-28T00:32:04.099Z,1.30
2023-03-28T00:35:25.785Z,1.20
2023-03-28T00:38:55.034Z,1.10
2023-03-28T00:42:17.982Z,1.00
2023-03-28T00:45:39.694Z,1.00
2023-03-28T00:49:02.605Z,1.00
2023-03-28T00:52:25.310Z,0.90
2023-03-28T00:55:49.674Z,0.90
2023-03-28T00:59:12.971Z,0.80
2023-03-28T01:02:34.710Z,0.80
2023-03-28T01:05:56.907Z,0.80
2023-03-28T01:09:19.140Z,0.80
2023-03-28T01:12:43.252Z,0.80
2023-03-28T01:16:06.035Z,0.90
2023-03-28T01:19:33.798Z,0.90
2023-03-28T01:23:13.139Z,0.90
2023-03-28T01:26:47.516Z,0.90
2023-03-28T01:30:26.637Z,0.90
2023-03-28T01:33:58.486Z,0.90
2023-03-28T01:37:23.350Z,0.80
2023-03-28T01:40:47.217Z,0.80
2023-03-28T01:44:10.815Z,0.70
2023-03-28T01:47:36.756Z,0.70
2023-03-28T01:51:01.872Z,0.70
2023-03-28T01:54:28.466Z,0.70
2023-03-28T01:57:52.908Z,0.60
2023-03-28T02:01:17.450Z,0.60
2023-03-28T02:04:39.661Z,0.60
2023-03-28T02:08:03.754Z,0.60
2023-03-28T02:11:28.277Z,0.60
2023-03-28T02:14:51.533Z,0.50
2023-03-28T02:18:16.399Z,0.50
2023-03-28T02:21:40.658Z,0.50
2023-03-28T02:25:02.293Z,0.40
2023-03-28T02:28:25.485Z,0.50
2023-03-28T02:31:47.640Z,0.40
2023-03-28T02:35:09.797Z,0.40
2023-03-28T02:38:33.651Z,0.30
2023-03-28T02:42:02.330Z,0.30
2023-03-28T02:45:34.166Z,0.20
2023-03-28T02:49:19.559Z,0.20
2023-03-28T02:52:45.759Z,0.20
2023-03-28T02:56:11.207Z,0.20
2023-03-28T02:59:35.121Z,0.20
2023-03-28T03:02:58.179Z,0.20
2023-03-28T03:06:19.889Z,0.10
2023-03-28T03:09:41.495Z,0.10
2023-03-28T03:13:03.128Z,0.10
2023-03-28T03:16:24.959Z,0.10
2023-03-28T03:19:47.957Z,0.10
2023-03-28T03:23:09.661Z,0.10
2023-03-28T03:26:31.665Z,0.10
2023-03-28T03:29:53.505Z,0.10
2023-03-28T03:33:19.431Z,0.10
2023-03-28T03:36:42.896Z,0.10
2023-03-28T03:40:05.213Z,0.10
2023-03-28T03:43:27.707Z,0.00
2023-03-28T03:46:49.331Z,0.00
2023-03-28T03:50:11.192Z,-0.10
2023-03-28T03:53:35.045Z,-0.10
2023-03-28T03:56:56.745Z,-0.20
2023-03-28T04:00:18.461Z,-0.20
2023-03-28T04:03:40.103Z,-0.20
2023-03-28T04:07:01.779Z,-0.20
2023-03-28T04:10:24.805Z,-0.20
2023-03-28T04:13:46.421Z,-0.20
2023-03-28T04:17:08.025Z,-0.20
2023-03-28T04:20:29.624Z,-0.20
2023-03-28T04:23:51.265Z,-0.20
2023-03-28T04:27:14.217Z,-0.20
2023-03-28T04:30:35.987Z,-0.30
2023-03-28T04:33:57.620Z,-0.20
2023-03-28T04:37:19.585Z,-0.30
2023-03-28T04:40:42.040Z,-0.30
2023-03-28T04:44:05.137Z,-0.30
2023-03-28T04:47:26.767Z,-0.30
2023-03-28T04:50:48.561Z,-0.40
2023-03-28T04:54:10.195Z,-0.40
2023-03-28T04:57:31.869Z,-0.40
2023-03-28T05:00:54.837Z,-0.40
2023-03-28T05:04:16.420Z,-0.40
2023-03-28T05:07:38.011Z,-0.40
2023-03-28T05:10:59.855Z,-0.40
2023-03-28T05:14:21.664Z,-0.40
2023-03-28T05:17:44.658Z,-0.40
2023-03-28T05:21:06.508Z,-0.40
2023-03-28T05:24:28.145Z,-0.40
2023-03-28T05:27:50.025Z,-0.30
2023-03-28T05:31:11.624Z,-0.30
2023-03-28T05:34:34.606Z,-0.30
2023-03-28T05:37:56.219Z,-0.20
2023-03-28T05:41:17.991Z,-0.20
2023-03-28T05:44:39.586Z,-0.10
2023-03-28T05:48:01.216Z,0.00
2023-03-28T05:51:24.251Z,0.10
2023-03-28T05:54:50.600Z,0.20
2023-03-28T05:58:12.938Z,0.40
2023-03-28T06:01:34.512Z,0.50
2023-03-28T06:04:56.387Z,0.70
2023-03-28T06:08:19.426Z,1.00
2023-03-28T06:11:41.217Z,1.30
2023-03-28T06:15:02.899Z,1.80
2023-03-28T06:18:24.510Z,2.60
2023-03-28T06:21:46.226Z,3.50
2023-03-28T06:25:09.662Z,3.70
2023-03-28T06:28:31.281Z,3.60
2023-03-28T06:31:52.966Z,3.50
2023-03-28T06:35:14.719Z,3.40
2023-03-28T06:38:36.523Z,3.20
2023-03-28T06:41:59.486Z,3.10
2023-03-28T06:45:21.173Z,3.10
2023-03-28T06:48:42.975Z,3.00
2023-03-28T06:52:04.597Z,3.00
2023-03-28T06:55:26.199Z,3.20
2023-03-28T06:58:49.192Z,3.30
2023-03-28T07:02:10.921Z,3.40
2023-03-28T07:05:37.266Z,3.70
2023-03-28T07:08:59.010Z,4.30
2023-03-28T07:12:20.651Z,6.00
2023-03-28T07:15:43.622Z,8.10
2023-03-28T07:19:05.228Z,9.30
2023-03-28T07:22:26.991Z,9.50
2023-03-28T07:25:50.638Z,9.80
2023-03-28T07:29:12.530Z,11.20
2023-03-28T07:32:47.439Z,12.40
2023-03-28T07:36:15.403Z,13.60
2023-03-28T07:39:37.102Z,14.20
2023-03-28T07:42:58.688Z,14.50
2023-03-28T07:46:20.381Z,15.20
2023-03-28T07:49:45.221Z,15.60
2023-03-28T07:53:07.100Z,15.80
2023-03-28T07:56:28.764Z,15.90
2023-03-28T07:59:50.390Z,16.20
2023-03-28T08:03:12.071Z,15.90
2023-03-28T08:06:35.358Z,16.00
2023-03-28T08:09:58.470Z,16.40
2023-03-28T08:13:20.750Z,16.00
2023-03-28T08:16:42.858Z,16.60
2023-03-28T08:20:04.877Z,16.80
2023-03-28T08:23:28.221Z,16.50
2023-03-28T08:26:49.813Z,15.60
2023-03-28T08:30:11.602Z,16.00
2023-03-28T08:33:33.197Z,16.70
2023-03-28T08:36:54.991Z,16.40
2023-03-28T08:40:20.126Z,16.80
2023-03-28T08:43:48.321Z,15.90
2023-03-28T08:47:11.970Z,13.40
2023-03-28T08:50:34.918Z,11.40
2023-03-28T08:54:02.903Z,10.70
2023-03-28T08:57:28.187Z,11.60
2023-03-28T09:00:50.572Z,11.80
2023-03-28T09:04:20.102Z,12.60
2023-03-28T09:07:45.950Z,13.40
2023-03-28T09:11:12.654Z,13.70
2023-03-28T09:14:51.819Z,14.40
2023-03-28T09:18:24.764Z,15.70
2023-03-28T09:21:54.029Z,16.90
2023-03-28T09:25:24.324Z,17.40
2023-03-28T09:28:48.804Z,16.00
2023-03-28T09:32:15.909Z,15.70
2023-03-28T09:35:39.178Z,14.90
2023-03-28T09:39:01.673Z,13.50
2023-03-28T09:42:27.437Z,12.00
2023-03-28T09:45:52.795Z,11.50
2023-03-28T09:49:17.092Z,12.70
2023-03-28T09:52:38.848Z,13.90
2023-03-28T09:56:04.899Z,13.60
2023-03-28T09:59:28.794Z,12.80
2023-03-28T10:02:51.865Z,12.20
2023-03-28T10:06:24.472Z,12.40
2023-03-28T10:09:47.671Z,13.40
2023-03-28T10:13:09.733Z,13.00
2023-03-28T10:16:31.659Z,12.30
2023-03-28T10:19:58.028Z,11.50
2023-03-28T10:23:22.224Z,10.50
2023-03-28T10:26:43.913Z,10.20
2023-03-28T10:30:10.778Z,9.80
2023-03-28T10:33:33.012Z,9.20
2023-03-28T10:36:54.615Z,9.10
2023-03-28T10:40:25.829Z,9.10
2023-03-28T10:43:47.617Z,9.20
2023-03-28T10:47:12.929Z,9.00
2023-03-28T10:50:36.859Z,8.80
2023-03-28T10:54:05.214Z,8.70
2023-03-28T10:57:31.271Z,8.70
2023-03-28T11:00:56.599Z,8.80
2023-03-28T11:04:24.098Z,9.10
2023-03-28T11:07:51.216Z,9.40
2023-03-28T11:11:26.968Z,9.30
2023-03-28T11:14:55.627Z,8.90
2023-03-28T11:18:23.941Z,8.70
2023-03-28T11:21:50.178Z,8.90
2023-03-28T11:25:17.898Z,8.90
2023-03-28T11:29:01.081Z,8.50
2023-03-28T11:32:26.946Z,8.50
2023-03-28T11:35:50.728Z,8.70
2023-03-28T11:39:16.745Z,9.00
2023-03-28T11:42:40.271Z,9.30
2023-03-28T11:46:04.310Z,9.30
2023-03-28T11:49:31.093Z,9.30
2023-03-28T11:52:56.149Z,9.30
2023-03-28T11:56:22.825Z,9.10
2023-03-28T11:59:49.202Z,9.20
2023-03-28T12:03:13.910Z,9.30
2023-03-28T12:06:49.075Z,9.40
2023-03-28T12:10:19.772Z,9.30
2023-03-28T12:13:46.213Z,9.10
2023-03-28T12:17:13.914Z,9.10
2023-03-28T12:20:36.973Z,9.10
2023-03-28T12:24:03.452Z,9.10
2023-03-28T12:27:32.062Z,9.10
2023-03-28T12:30:58.304Z,9.00
2023-03-28T12:34:24.239Z,9.00
2023-03-28T12:37:52.851Z,9.40
2023-03-28T12:41:18.037Z,9.60
2023-03-28T12:44:42.421Z,9.80
2023-03-28T12:48:05.791Z,10.00
2023-03-28T12:51:30.350Z,10.10
2023-03-28T12:54:57.755Z,10.00
2023-03-28T12:58:24.601Z,10.10
2023-03-28T13:01:47.809Z,10.20
2023-03-28T13:05:15.474Z,10.20
2023-03-28T13:08:45.789Z,10.00
2023-03-28T13:12:18.604Z,9.90
2023-03-28T13:15:54.279Z,10.10
2023-03-28T13:19:18.431Z,10.30
2023-03-28T13:22:42.378Z,10.50
2023-03-28T13:26:10.000Z,10.30
2023-03-28T13:29:44.062Z,10.20
2023-03-28T13:33:13.364Z,9.80
2023-03-28T13:36:35.320Z,9.50
2023-03-28T13:39:58.306Z,9.50
2023-03-28T13:43:23.899Z,9.50
2023-03-28T13:46:47.432Z,9.50
2023-03-28T13:50:19.046Z,9.60
2023-03-28T13:53:47.613Z,9.70
2023-03-28T13:57:14.909Z,9.60
2023-03-28T14:00:36.651Z,9.80
2023-03-28T14:03:58.322Z,9.90
2023-03-28T14:07:25.201Z,9.80
2023-03-28T14:10:47.414Z,9.60
2023-03-28T14:14:10.714Z,9.50
2023-03-28T14:17:33.981Z,9.50
2023-03-28T14:20:55.722Z,9.50
2023-03-28T14:24:21.655Z,9.50
2023-03-28T14:27:44.468Z,9.50
2023-03-28T14:31:06.353Z,9.50
2023-03-28T14:34:28.808Z,9.40
2023-03-28T14:37:51.204Z,9.40
2023-03-28T14:41:16.220Z,9.60
2023-03-28T14:44:40.173Z,9.70
2023-03-28T14:48:02.639Z,9.80
2023-03-28T14:51:24.437Z,10.00
2023-03-28T14:54:47.032Z,10.20
2023-03-28T14:58:11.276Z,10.40
2023-03-28T15:01:34.209Z,10.60
2023-03-28T15:04:58.119Z,10.50
2023-03-28T15:08:24.091Z,10.50
2023-03-28T15:11:46.484Z,10.40
2023-03-28T15:15:14.212Z,10.30
2023-03-28T15:18:39.121Z,10.10
2023-03-28T15:22:02.053Z,10.00
2023-03-28T15:25:24.124Z,10.10
2023-03-28T15:28:46.633Z,9.90
2023-03-28T15:32:13.345Z,9.90
2023-03-28T15:35:39.178Z,9.90
2023-03-28T15:39:04.366Z,9.90
2023-03-28T15:42:32.586Z,9.90
2023-03-28T15:45:55.916Z,9.90
2023-03-28T15:49:17.570Z,9.90
2023-03-28T15:52:41.856Z,10.00
2023-03-28T15:56:07.889Z,10.10
2023-03-28T15:59:32.422Z,10.20
2023-03-28T16:03:14.942Z,10.10
2023-03-28T16:06:42.603Z,10.00
2023-03-28T16:10:06.589Z,9.80
2023-03-28T16:13:34.309Z,9.70
2023-03-28T16:16:57.910Z,9.70
2023-03-28T16:20:21.945Z,9.60
2023-03-28T16:23:43.567Z,9.60
2023-03-28T16:27:06.555Z,9.60
2023-03-28T16:30:29.434Z,9.60
2023-03-28T16:33:51.067Z,9.60
2023-03-28T16:37:12.649Z,9.60
2023-03-28T16:40:34.228Z,9.50
2023-03-28T16:43:57.214Z,9.40
2023-03-28T16:47:18.818Z,9.30
2023-03-28T16:50:40.421Z,9.20
2023-03-28T16:54:01.994Z,9.10
2023-03-28T16:57:23.718Z,9.00
2023-03-28T17:00:46.804Z,8.90
2023-03-28T17:04:08.769Z,8.80
2023-03-28T17:07:30.358Z,8.70
2023-03-28T17:10:51.946Z,8.60
2023-03-28T17:14:13.552Z,8.40
2023-03-28T17:17:37.138Z,8.30
2023-03-28T17:21:05.965Z,8.10
2023-03-28T17:24:28.784Z,8.00
2023-03-28T17:27:50.713Z,7.90
2023-03-28T17:31:13.708Z,7.80
2023-03-28T17:34:37.150Z,7.60
2023-03-28T17:37:58.876Z,7.50
2023-03-28T17:41:23.451Z,7.40
2023-03-28T17:44:46.178Z,7.30
2023-03-28T17:48:08.253Z,7.20
2023-03-28T17:51:31.430Z,7.10
2023-03-28T17:54:53.066Z,7.00
2023-03-28T17:58:17.996Z,6.90
2023-03-28T18:01:40.135Z,6.90
2023-03-28T18:05:01.773Z,6.80
2023-03-28T18:08:24.837Z,6.80
2023-03-28T18:11:47.621Z,6.80
2023-03-28T18:15:15.583Z,6.80
2023-03-28T18:18:38.168Z,6.90
2023-03-28T18:22:00.112Z,6.90
2023-03-28T18:25:23.112Z,6.90
2023-03-28T18:28:46.223Z,6.90
2023-03-28T18:32:08.146Z,6.90
2023-03-28T18:35:30.361Z,6.80
2023-03-28T18:38:51.994Z,6.80
2023-03-28T18:42:15.756Z,6.70
2023-03-28T18:45:37.602Z,6.60
2023-03-28T18:48:59.831Z,6.50
2023-03-28T18:52:21.503Z,6.40
2023-03-28T18:55:43.094Z,6.40
2023-03-28T18:59:06.117Z,6.40
2023-03-28T19:02:28.244Z,6.40
2023-03-28T19:05:53.746Z,6.30
2023-03-28T19:09:15.512Z,6.20
2023-03-28T19:12:37.123Z,6.10
2023-03-28T19:16:00.679Z,6.10
2023-03-28T19:19:22.688Z,6.10
2023-03-28T19:22:44.320Z,6.20
2023-03-28T19:26:07.056Z,6.30
2023-03-28T19:29:28.845Z,6.40
2023-03-28T19:32:52.078Z,6.40
2023-03-28T19:36:15.013Z,6.50
2023-03-28T19:39:36.687Z,6.60
2023-03-28T19:42:58.517Z,6.70
2023-03-28T19:46:23.882Z,6.70
2023-03-28T19:49:49.969Z,6.80
2023-03-28T19:53:11.734Z,6.90
2023-03-28T19:56:34.749Z,6.90
2023-03-28T19:59:56.333Z,6.90
2023-03-28T20:03:18.491Z,6.90
2023-03-28T20:06:41.406Z,6.90
2023-03-28T20:10:03.323Z,6.90
2023-03-28T20:13:31.161Z,6.90
2023-03-28T20:16:54.571Z,6.90
2023-03-28T20:20:16.378Z,6.80
2023-03-28T20:23:41.157Z,6.90
2023-03-28T20:27:05.419Z,6.90
2023-03-28T20:30:32.220Z,6.90
2023-03-28T20:33:55.860Z,7.00
2023-03-28T20:37:19.070Z,7.10
2023-03-28T20:40:44.433Z,7.10
2023-03-28T20:44:08.732Z,7.10
2023-03-28T20:47:30.978Z,7.10
2023-03-28T20:50:52.790Z,7.20
2023-03-28T20:54:14.393Z,7.20
2023-03-28T20:57:39.097Z,7.20
2023-03-28T21:01:02.284Z,7.20
2023-03-28T21:04:25.025Z,7.20
2023-03-28T21:07:46.935Z,7.20
2023-03-28T21:11:08.614Z,7.20
2023-03-28T21:14:31.695Z,7.30
2023-03-28T21:17:54.895Z,7.30
2023-03-28T21:21:17.379Z,7.20
2023-03-28T21:24:39.295Z,7.20
2023-03-28T21:28:01.042Z,7.20
2023-03-28T21:31:25.211Z,7.10
2023-03-28T21:34:47.141Z,7.10
2023-03-28T21:38:08.719Z,7.00
2023-03-28T21:41:30.326Z,7.00
2023-03-28T21:44:51.989Z,6.90
2023-03-28T21:48:15.174Z,7.00
2023-03-28T21:51:36.786Z,6.90
2023-03-28T21:54:58.487Z,6.90
2023-03-28T21:58:20.107Z,6.90
2023-03-28T22:01:41.755Z,6.90
2023-03-28T22:05:06.100Z,7.00
2023-03-28T22:08:32.527Z,6.90
2023-03-28T22:11:54.097Z,6.90
2023-03-28T22:15:15.732Z,6.90
2023-03-28T22:18:37.307Z,6.90
2023-03-28T22:22:00.271Z,6.80
2023-03-28T22:25:21.869Z,6.80
2023-03-28T22:28:43.478Z,6.80
2023-03-28T22:32:05.087Z,6.80
2023-03-28T22:35:26.716Z,6.80
2023-03-28T22:38:49.768Z,6.80
2023-03-28T22:42:11.372Z,6.80
2023-03-28T22:45:32.999Z,6.90
2023-03-28T22:48:54.705Z,6.90
2023-03-28T22:52:16.320Z,7.00
2023-03-28T22:55:39.307Z,7.00
2023-03-28T22:59:00.937Z,6.90
2023-03-28T23:02:22.603Z,6.70
2023-03-28T23:05:44.314Z,6.50
2023-03-28T23:09:06.105Z,6.30
2023-03-28T23:12:29.331Z,6.20
2023-03-28T23:15:51.010Z,6.10
2023-03-28T23:19:12.596Z,6.00
2023-03-28T23:22:34.191Z,6.00
2023-03-28T23:25:55.782Z,6.00
2023-03-28T23:29:18.894Z,5.90
2023-03-28T23:32:40.579Z,5.90
2023-03-28T23:36:02.413Z,5.90
2023-03-28T23:39:24.253Z,5.90
2023-03-28T23:42:46.039Z,5.90
2023-03-28T23:46:09.142Z,5.80
2023-03-28T23:49:30.867Z,5.70
2023-03-28T23:52:52.448Z,5.60
2023-03-28T23:56:14.072Z,5.60
2023-03-28T23:59:35.673Z,5.60
